Nordmont, Pennsylvania
Current Conditions -  °F | °C
As of 5:54 AM on Sunday 21 Dec 2014 (Local Time) from KIPT Reporting Station
Overcast Overcast  
Wind Chill: 25°   Ceiling: 2900
Heat Index: 31°   Visibility: 10mi
Dew Point: 22°   Wind: 6mph
Humidity: 69%   Direction: 260°W
Pressure: 30.29"   Gusts: NA
Location:  41.3719°N, 76.499°W
Report Text: KIPT 211054Z AUTO 26005KT 10SM OVC029 M01/M06 A3029 RMK AO2 SLP263 T10061056
Loading
Personal Weather Stations






























Interactive Weather Map New forecast layout! Learn more

10-Day Weather Forecast

Advertisements
Track Severe Weather on mobile